sensor_id;sensor_type;location;lat;lon;timestamp;pressure;altitude;pressure_sealevel;temperature;humidity
33161;BME280;19522;45.656;11.302;2023-04-25T00:01:04;97677.53;;;11.29;100.00
33161;BME280;19522;45.656;11.302;2023-04-25T00:03:34;97670.00;;;11.24;100.00
33161;BME280;19522;45.656;11.302;2023-04-25T00:06:00;97667.66;;;11.41;100.00
33161;BME280;19522;45.656;11.302;2023-04-25T00:08:29;97674.41;;;11.84;100.00
33161;BME280;19522;45.656;11.302;2023-04-25T00:10:56;97672.94;;;11.88;95.65
33161;BME280;19522;45.656;11.302;2023-04-25T00:13:22;97654.41;;;11.65;95.70
33161;BME280;19522;45.656;11.302;2023-04-25T00:15:47;97679.91;;;11.77;94.69
33161;BME280;19522;45.656;11.302;2023-04-25T00:18:14;97682.84;;;11.69;95.97
33161;BME280;19522;45.656;11.302;2023-04-25T00:20:39;97682.22;;;11.67;96.93
33161;BME280;19522;45.656;11.302;2023-04-25T00:23:05;97676.63;;;11.48;98.82
33161;BME280;19522;45.656;11.302;2023-04-25T00:25:31;97650.03;;;11.57;98.73
33161;BME280;19522;45.656;11.302;2023-04-25T00:27:57;97668.63;;;11.67;99.36
33161;BME280;19522;45.656;11.302;2023-04-25T00:30:22;97660.34;;;11.42;100.00
33161;BME280;19522;45.656;11.302;2023-04-25T00:32:48;97655.34;;;11.32;100.00
33161;BME280;19522;45.656;11.302;2023-04-25T00:35:14;97638.44;;;11.10;100.00
33161;BME280;19522;45.656;11.302;2023-04-25T00:37:39;97666.75;;;11.61;100.00
33161;BME280;19522;45.656;11.302;2023-04-25T00:40:06;97619.06;;;11.58;99.96
33161;BME280;19522;45.656;11.302;2023-04-25T00:42:32;97647.38;;;11.96;98.35
33161;BME280;19522;45.656;11.302;2023-04-25T00:44:58;97654.50;;;11.97;96.35
33161;BME280;19522;45.656;11.302;2023-04-25T00:47:25;97628.16;;;11.84;97.01
33161;BME280;19522;45.656;11.302;2023-04-25T00:49:50;97635.56;;;11.70;98.38
33161;BME280;19522;45.656;11.302;2023-04-25T00:52:16;97639.13;;;11.71;99.69
33161;BME280;19522;45.656;11.302;2023-04-25T00:54:42;97633.06;;;11.68;100.00
33161;BME280;19522;45.656;11.302;2023-04-25T00:57:07;97626.16;;;11.66;99.30
33161;BME280;19522;45.656;11.302;2023-04-25T00:59:33;97629.94;;;11.65;98.78
33161;BME280;19522;45.656;11.302;2023-04-25T01:01:59;97603.44;;;11.47;99.73
33161;BME280;19522;45.656;11.302;2023-04-25T01:04:27;97635.00;;;11.54;100.00
33161;BME280;19522;45.656;11.302;2023-04-25T01:06:53;97626.34;;;11.71;100.00
33161;BME280;19522;45.656;11.302;2023-04-25T01:09:19;97625.00;;;11.94;97.76
33161;BME280;19522;45.656;11.302;2023-04-25T01:11:45;97626.06;;;11.86;98.10
33161;BME280;19522;45.656;11.302;2023-04-25T01:14:11;97623.97;;;11.88;94.92
33161;BME280;19522;45.656;11.302;2023-04-25T01:16:36;97562.63;;;11.53;95.57
33161;BME280;19522;45.656;11.302;2023-04-25T01:19:07;97613.31;;;11.87;94.40
33161;BME280;19522;45.656;11.302;2023-04-25T01:21:35;97613.31;;;11.87;93.84
33161;BME280;19522;45.656;11.302;2023-04-25T01:24:00;97598.63;;;11.42;94.25
33161;BME280;19522;45.656;11.302;2023-04-25T01:26:26;97606.41;;;11.32;94.86
33161;BME280;19522;45.656;11.302;2023-04-25T01:28:52;97609.75;;;11.41;95.19
33161;BME280;19522;45.656;11.302;2023-04-25T01:31:18;97601.03;;;11.18;94.47
33161;BME280;19522;45.656;11.302;2023-04-25T01:33:44;97601.25;;;11.10;95.42
33161;BME280;19522;45.656;11.302;2023-04-25T01:36:10;97592.91;;;10.98;94.99
33161;BME280;19522;45.656;11.302;2023-04-25T01:38:36;97581.38;;;11.16;91.39
33161;BME280;19522;45.656;11.302;2023-04-25T01:41:02;97587.91;;;10.95;92.95
33161;BME280;19522;45.656;11.302;2023-04-25T01:43:27;97569.31;;;10.79;94.70
33161;BME280;19522;45.656;11.302;2023-04-25T01:45:53;97602.53;;;10.81;93.65
33161;BME280;19522;45.656;11.302;2023-04-25T01:48:18;97591.06;;;10.58;93.40
33161;BME280;19522;45.656;11.302;2023-04-25T01:50:44;97549.13;;;10.41;92.97
33161;BME280;19522;45.656;11.302;2023-04-25T01:53:12;97590.00;;;10.73;91.55
33161;BME280;19522;45.656;11.302;2023-04-25T01:55:38;97564.34;;;10.75;90.78
33161;BME280;19522;45.656;11.302;2023-04-25T01:58:04;97582.50;;;10.82;91.27
33161;BME280;19522;45.656;11.302;2023-04-25T02:00:35;97584.38;;;10.81;91.03
33161;BME280;19522;45.656;11.302;2023-04-25T02:03:00;97580.63;;;10.69;92.14
33161;BME280;19522;45.656;11.302;2023-04-25T02:05:26;97578.31;;;10.59;93.06
33161;BME280;19522;45.656;11.302;2023-04-25T02:07:51;97553.88;;;10.32;93.49
33161;BME280;19522;45.656;11.302;2023-04-25T02:10:17;97576.69;;;10.51;94.31
33161;BME280;19522;45.656;11.302;2023-04-25T02:12:42;97543.25;;;10.31;92.77
33161;BME280;19522;45.656;11.302;2023-04-25T02:15:08;97518.59;;;10.12;92.98
33161;BME280;19522;45.656;11.302;2023-04-25T02:17:34;97545.53;;;10.20;94.01
33161;BME280;19522;45.656;11.302;2023-04-25T02:19:59;97570.59;;;10.29;93.40
33161;BME280;19522;45.656;11.302;2023-04-25T02:22:25;97566.81;;;10.30;94.66
33161;BME280;19522;45.656;11.302;2023-04-25T02:24:51;97503.16;;;9.86;94.14
33161;BME280;19522;45.656;11.302;2023-04-25T02:27:17;97528.81;;;10.10;94.89
33161;BME280;19522;45.656;11.302;2023-04-25T02:29:42;97558.06;;;10.21;95.34
33161;BME280;19522;45.656;11.302;2023-04-25T02:32:08;97558.06;;;10.28;93.06
33161;BME280;19522;45.656;11.302;2023-04-25T02:34:33;97484.78;;;10.08;92.63
33161;BME280;19522;45.656;11.302;2023-04-25T02:37:07;97552.66;;;10.48;92.47
33161;BME280;19522;45.656;11.302;2023-04-25T02:39:37;97554.75;;;10.53;90.52
33161;BME280;19522;45.656;11.302;2023-04-25T02:42:06;97524.47;;;10.42;90.15
33161;BME280;19522;45.656;11.302;2023-04-25T02:44:31;97543.66;;;10.54;91.82
33161;BME280;19522;45.656;11.302;2023-04-25T02:46:57;97544.47;;;10.68;92.54
33161;BME280;19522;45.656;11.302;2023-04-25T02:49:22;97541.56;;;10.70;93.18
33161;BME280;19522;45.656;11.302;2023-04-25T02:51:48;97531.53;;;10.64;93.21
33161;BME280;19522;45.656;11.302;2023-04-25T02:54:13;97530.50;;;10.65;89.93
33161;BME280;19522;45.656;11.302;2023-04-25T02:56:39;97528.22;;;10.62;90.36
33161;BME280;19522;45.656;11.302;2023-04-25T02:59:04;97524.47;;;10.56;91.83
33161;BME280;19522;45.656;11.302;2023-04-25T03:01:30;97526.56;;;10.54;93.31
33161;BME280;19522;45.656;11.302;2023-04-25T03:03:55;97523.84;;;10.60;93.76
33161;BME280;19522;45.656;11.302;2023-04-25T03:06:21;97523.19;;;10.65;94.92
33161;BME280;19522;45.656;11.302;2023-04-25T03:08:47;97522.34;;;10.65;95.71
33161;BME280;19522;45.656;11.302;2023-04-25T03:11:12;97496.91;;;10.39;96.43
33161;BME280;19522;45.656;11.302;2023-04-25T03:13:37;97511.53;;;10.38;94.52
33161;BME280;19522;45.656;11.302;2023-04-25T03:16:03;97512.56;;;10.43;96.10
33161;BME280;19522;45.656;11.302;2023-04-25T03:18:29;97516.72;;;10.46;96.47
33161;BME280;19522;45.656;11.302;2023-04-25T03:20:54;97523.41;;;10.23;98.70
33161;BME280;19522;45.656;11.302;2023-04-25T03:23:20;97512.75;;;10.75;96.64
33161;BME280;19522;45.656;11.302;2023-04-25T03:25:45;97496.41;;;10.82;95.81
33161;BME280;19522;45.656;11.302;2023-04-25T03:28:11;97510.59;;;10.98;95.42
33161;BME280;19522;45.656;11.302;2023-04-25T03:30:36;97505.19;;;10.78;96.35
33161;BME280;19522;45.656;11.302;2023-04-25T03:33:02;97518.34;;;10.74;97.95
33161;BME280;19522;45.656;11.302;2023-04-25T03:35:27;97503.56;;;10.29;98.90
33161;BME280;19522;45.656;11.302;2023-04-25T03:37:53;97555.13;;;10.29;100.00
33161;BME280;19522;45.656;11.302;2023-04-25T03:40:18;97559.13;;;10.34;100.00
33161;BME280;19522;45.656;11.302;2023-04-25T03:42:44;97552.66;;;10.62;100.00
33161;BME280;19522;45.656;11.302;2023-04-25T03:45:09;97577.06;;;10.75;98.74
33161;BME280;19522;45.656;11.302;2023-04-25T03:47:35;97558.69;;;10.70;98.15
33161;BME280;19522;45.656;11.302;2023-04-25T03:50:00;97567.88;;;10.76;97.26
33161;BME280;19522;45.656;11.302;2023-04-25T03:52:27;97550.97;;;10.67;97.84
33161;BME280;19522;45.656;11.302;2023-04-25T03:54:53;97570.41;;;10.57;100.00
33161;BME280;19522;45.656;11.302;2023-04-25T03:57:18;97588.34;;;10.45;100.00
33161;BME280;19522;45.656;11.302;2023-04-25T03:59:43;97582.91;;;10.45;100.00
33161;BME280;19522;45.656;11.302;2023-04-25T04:02:09;97571.25;;;10.44;100.00
33161;BME280;19522;45.656;11.302;2023-04-25T04:04:35;97586.91;;;10.42;100.00
33161;BME280;19522;45.656;11.302;2023-04-25T04:07:01;97595.66;;;10.65;100.00
33161;BME280;19522;45.656;11.302;2023-04-25T04:09:27;97535.72;;;10.26;100.00
33161;BME280;19522;45.656;11.302;2023-04-25T04:11:53;97607.75;;;10.82;100.00
33161;BME280;19522;45.656;11.302;2023-04-25T04:14:18;97612.31;;;11.02;100.00
33161;BME280;19522;45.656;11.302;2023-04-25T04:16:44;97604.41;;;11.00;100.00
33161;BME280;19522;45.656;11.302;2023-04-25T04:19:10;97575.81;;;10.57;100.00
33161;BME280;19522;45.656;11.302;2023-04-25T04:21:36;97558.91;;;10.35;100.00
33161;BME280;19522;45.656;11.302;2023-04-25T04:24:01;97543.44;;;10.16;100.00
33161;BME280;19522;45.656;11.302;2023-04-25T04:26:27;97540.72;;;9.89;100.00
33161;BME280;19522;45.656;11.302;2023-04-25T04:28:53;97570.34;;;10.17;100.00
33161;BME280;19522;45.656;11.302;2023-04-25T04:31:22;97576.81;;;10.16;100.00
33161;BME280;19522;45.656;11.302;2023-04-25T04:33:48;97593.31;;;10.35;100.00
33161;BME280;19522;45.656;11.302;2023-04-25T04:36:13;97600.44;;;10.36;100.00
33161;BME280;19522;45.656;11.302;2023-04-25T04:38:41;97577.47;;;10.18;100.00
33161;BME280;19522;45.656;11.302;2023-04-25T04:41:10;97599.59;;;10.35;100.00
33161;BME280;19522;45.656;11.302;2023-04-25T04:43:35;97592.09;;;10.31;100.00
33161;BME280;19522;45.656;11.302;2023-04-25T04:46:02;97600.28;;;10.37;100.00
33161;BME280;19522;45.656;11.302;2023-04-25T04:48:30;97535.09;;;9.97;100.00
33161;BME280;19522;45.656;11.302;2023-04-25T04:50:58;97608.78;;;10.34;100.00
33161;BME280;19522;45.656;11.302;2023-04-25T04:53:23;97617.56;;;10.29;100.00
33161;BME280;19522;45.656;11.302;2023-04-25T04:55:49;97586.88;;;10.29;100.00
33161;BME280;19522;45.656;11.302;2023-04-25T04:58:15;97599.84;;;10.54;100.00
33161;BME280;19522;45.656;11.302;2023-04-25T05:00:40;97582.47;;;10.21;100.00
33161;BME280;19522;45.656;11.302;2023-04-25T05:03:05;97603.34;;;10.27;100.00
33161;BME280;19522;45.656;11.302;2023-04-25T05:05:31;97586.44;;;10.25;100.00
33161;BME280;19522;45.656;11.302;2023-04-25T05:07:56;97596.94;;;10.42;100.00
33161;BME280;19522;45.656;11.302;2023-04-25T05:10:22;97587.69;;;10.29;100.00
33161;BME280;19522;45.656;11.302;2023-04-25T05:12:47;97604.22;;;10.48;100.00
33161;BME280;19522;45.656;11.302;2023-04-25T05:15:13;97614.25;;;10.68;100.00
33161;BME280;19522;45.656;11.302;2023-04-25T05:17:38;97573.31;;;10.42;100.00
33161;BME280;19522;45.656;11.302;2023-04-25T05:20:06;97608.41;;;10.57;100.00
33161;BME280;19522;45.656;11.302;2023-04-25T05:22:32;97620.50;;;10.75;100.00
33161;BME280;19522;45.656;11.302;2023-04-25T05:24:57;97602.56;;;10.54;100.00
33161;BME280;19522;45.656;11.302;2023-04-25T05:27:23;97637.25;;;10.72;100.00
33161;BME280;19522;45.656;11.302;2023-04-25T05:29:49;97631.19;;;10.77;100.00
33161;BME280;19522;45.656;11.302;2023-04-25T05:32:14;97639.72;;;10.67;99.07
33161;BME280;19522;45.656;11.302;2023-04-25T05:34:40;97656.84;;;10.40;98.71
33161;BME280;19522;45.656;11.302;2023-04-25T05:37:07;97663.03;;;10.27;98.54
33161;BME280;19522;45.656;11.302;2023-04-25T05:39:32;97666.19;;;10.31;99.74
33161;BME280;19522;45.656;11.302;2023-04-25T05:41:57;97653.88;;;10.28;98.67
33161;BME280;19522;45.656;11.302;2023-04-25T05:44:23;97669.94;;;10.23;99.25
33161;BME280;19522;45.656;11.302;2023-04-25T05:46:49;97644.66;;;10.16;99.03
33161;BME280;19522;45.656;11.302;2023-04-25T05:49:14;97663.91;;;10.28;99.60
33161;BME280;19522;45.656;11.302;2023-04-25T05:51:40;97667.22;;;10.30;100.00
33161;BME280;19522;45.656;11.302;2023-04-25T05:54:05;97674.31;;;10.24;100.00
33161;BME280;19522;45.656;11.302;2023-04-25T05:56:31;97644.63;;;10.03;100.00
33161;BME280;19522;45.656;11.302;2023-04-25T05:58:57;97671.53;;;9.97;100.00
33161;BME280;19522;45.656;11.302;2023-04-25T06:01:22;97676.28;;;9.82;100.00
33161;BME280;19522;45.656;11.302;2023-04-25T06:03:48;97673.44;;;10.04;100.00
33161;BME280;19522;45.656;11.302;2023-04-25T06:06:14;97686.78;;;10.05;100.00
33161;BME280;19522;45.656;11.302;2023-04-25T06:08:40;97681.72;;;9.95;100.00
33161;BME280;19522;45.656;11.302;2023-04-25T06:11:06;97671.22;;;9.65;100.00
33161;BME280;19522;45.656;11.302;2023-04-25T06:13:32;97692.13;;;9.78;100.00
33161;BME280;19522;45.656;11.302;2023-04-25T06:15:57;97678.53;;;9.72;100.00
33161;BME280;19522;45.656;11.302;2023-04-25T06:18:23;97678.75;;;9.77;100.00
33161;BME280;19522;45.656;11.302;2023-04-25T06:20:48;97691.69;;;9.81;100.00
33161;BME280;19522;45.656;11.302;2023-04-25T06:23:14;97657.44;;;9.67;100.00
33161;BME280;19522;45.656;11.302;2023-04-25T06:25:39;97683.72;;;9.66;100.00
33161;BME280;19522;45.656;11.302;2023-04-25T06:28:05;97672.38;;;9.49;100.00
33161;BME280;19522;45.656;11.302;2023-04-25T06:30:30;97689.47;;;9.50;100.00
33161;BME280;19522;45.656;11.302;2023-04-25T06:32:59;97698.91;;;9.61;100.00
33161;BME280;19522;45.656;11.302;2023-04-25T06:35:24;97682.97;;;9.44;100.00
33161;BME280;19522;45.656;11.302;2023-04-25T06:37:50;97685.97;;;9.56;100.00
33161;BME280;19522;45.656;11.302;2023-04-25T06:40:15;97694.91;;;9.57;100.00
33161;BME280;19522;45.656;11.302;2023-04-25T06:42:42;97681.28;;;9.37;100.00
33161;BME280;19522;45.656;11.302;2023-04-25T06:45:08;97684.47;;;9.54;100.00
33161;BME280;19522;45.656;11.302;2023-04-25T06:47:34;97654.94;;;9.30;100.00
33161;BME280;19522;45.656;11.302;2023-04-25T06:49:59;97649.31;;;9.25;100.00
33161;BME280;19522;45.656;11.302;2023-04-25T06:52:24;97662.91;;;9.39;100.00
33161;BME280;19522;45.656;11.302;2023-04-25T06:54:50;97674.00;;;9.44;100.00
33161;BME280;19522;45.656;11.302;2023-04-25T06:57:15;97638.03;;;9.22;100.00
33161;BME280;19522;45.656;11.302;2023-04-25T06:59:41;97643.94;;;9.32;100.00
33161;BME280;19522;45.656;11.302;2023-04-25T07:02:06;97661.75;;;9.55;100.00
33161;BME280;19522;45.656;11.302;2023-04-25T07:04:32;97631.47;;;9.44;100.00
33161;BME280;19522;45.656;11.302;2023-04-25T07:06:57;97656.53;;;9.53;100.00
33161;BME280;19522;45.656;11.302;2023-04-25T07:09:23;97647.78;;;9.51;100.00
33161;BME280;19522;45.656;11.302;2023-04-25T07:11:48;97643.03;;;9.60;100.00
33161;BME280;19522;45.656;11.302;2023-04-25T07:14:14;97597.66;;;9.33;97.89
33161;BME280;19522;45.656;11.302;2023-04-25T07:16:40;97622.28;;;9.39;99.64
33161;BME280;19522;45.656;11.302;2023-04-25T07:19:06;97655.13;;;9.64;98.35
33161;BME280;19522;45.656;11.302;2023-04-25T07:21:31;97649.28;;;9.60;98.55
33161;BME280;19522;45.656;11.302;2023-04-25T07:23:57;97622.31;;;9.45;97.76
33161;BME280;19522;45.656;11.302;2023-04-25T07:26:23;97648.28;;;9.68;97.15
33161;BME280;19522;45.656;11.302;2023-04-25T07:28:48;97640.09;;;9.61;96.29
33161;BME280;19522;45.656;11.302;2023-04-25T07:31:17;97645.91;;;9.58;97.61
33161;BME280;19522;45.656;11.302;2023-04-25T07:33:44;97643.06;;;9.66;98.63
33161;BME280;19522;45.656;11.302;2023-04-25T07:36:10;97626.97;;;9.65;96.59
33161;BME280;19522;45.656;11.302;2023-04-25T07:38:36;97611.31;;;9.60;96.64
33161;BME280;19522;45.656;11.302;2023-04-25T07:41:01;97632.50;;;9.43;92.78
33161;BME280;19522;45.656;11.302;2023-04-25T07:43:27;97638.13;;;9.42;95.97
33161;BME280;19522;45.656;11.302;2023-04-25T07:45:52;97613.25;;;9.25;98.24
33161;BME280;19522;45.656;11.302;2023-04-25T07:48:18;97627.47;;;9.33;100.00
33161;BME280;19522;45.656;11.302;2023-04-25T07:50:44;97594.53;;;8.95;100.00
33161;BME280;19522;45.656;11.302;2023-04-25T07:53:09;97560.03;;;8.47;100.00
33161;BME280;19522;45.656;11.302;2023-04-25T07:55:35;97570.63;;;8.41;100.00
33161;BME280;19522;45.656;11.302;2023-04-25T07:58:01;97573.56;;;8.47;100.00
33161;BME280;19522;45.656;11.302;2023-04-25T08:00:28;97600.09;;;8.86;100.00
33161;BME280;19522;45.656;11.302;2023-04-25T08:02:54;97558.00;;;8.84;100.00
33161;BME280;19522;45.656;11.302;2023-04-25T08:05:19;97596.19;;;9.31;100.00
33161;BME280;19522;45.656;11.302;2023-04-25T08:07:45;97601.06;;;9.49;100.00
33161;BME280;19522;45.656;11.302;2023-04-25T08:10:10;97593.00;;;9.69;99.71
33161;BME280;19522;45.656;11.302;2023-04-25T08:12:36;97588.28;;;9.91;98.57
33161;BME280;19522;45.656;11.302;2023-04-25T08:15:02;97581.22;;;10.17;98.79
33161;BME280;19522;45.656;11.302;2023-04-25T08:17:27;97580.19;;;10.25;98.98
33161;BME280;19522;45.656;11.302;2023-04-25T08:19:53;97558.09;;;10.41;97.84
33161;BME280;19522;45.656;11.302;2023-04-25T08:22:18;97585.19;;;10.88;94.48
33161;BME280;19522;45.656;11.302;2023-04-25T08:24:44;97582.25;;;11.10;92.04
33161;BME280;19522;45.656;11.302;2023-04-25T08:27:09;97590.03;;;11.59;90.41
33161;BME280;19522;45.656;11.302;2023-04-25T08:29:35;97583.00;;;11.83;85.84
33161;BME280;19522;45.656;11.302;2023-04-25T08:32:00;97582.56;;;12.25;85.98
33161;BME280;19522;45.656;11.302;2023-04-25T08:34:26;97591.13;;;12.28;75.78
33161;BME280;19522;45.656;11.302;2023-04-25T08:36:51;97569.50;;;12.34;77.97
33161;BME280;19522;45.656;11.302;2023-04-25T08:39:17;97581.69;;;12.56;79.64
33161;BME280;19522;45.656;11.302;2023-04-25T08:41:43;97569.53;;;12.77;76.29
33161;BME280;19522;45.656;11.302;2023-04-25T08:44:12;97565.97;;;13.02;71.96
33161;BME280;19522;45.656;11.302;2023-04-25T08:46:39;97589.69;;;13.39;69.54
33161;BME280;19522;45.656;11.302;2023-04-25T08:49:08;97587.94;;;13.63;68.22
33161;BME280;19522;45.656;11.302;2023-04-25T08:51:44;97580.59;;;13.94;70.34
33161;BME280;19522;45.656;11.302;2023-04-25T08:54:13;97589.19;;;14.52;69.81
33161;BME280;19522;45.656;11.302;2023-04-25T08:56:41;97584.31;;;14.42;71.98
33161;BME280;19522;45.656;11.302;2023-04-25T08:59:10;97596.47;;;14.16;70.91
33161;BME280;19522;45.656;11.302;2023-04-25T09:01:35;97593.44;;;13.94;68.04
33161;BME280;19522;45.656;11.302;2023-04-25T09:04:01;97576.81;;;13.95;70.41
33161;BME280;19522;45.656;11.302;2023-04-25T09:06:28;97589.28;;;13.73;65.75
33161;BME280;19522;45.656;11.302;2023-04-25T09:08:54;97578.25;;;13.49;70.69
33161;BME280;19522;45.656;11.302;2023-04-25T09:11:20;97581.16;;;13.66;65.59
33161;BME280;19522;45.656;11.302;2023-04-25T09:13:45;97593.53;;;13.31;65.36
33161;BME280;19522;45.656;11.302;2023-04-25T09:16:11;97594.72;;;13.35;63.71
33161;BME280;19522;45.656;11.302;2023-04-25T09:18:37;97575.44;;;13.55;69.48
33161;BME280;19522;45.656;11.302;2023-04-25T09:21:10;97566.22;;;13.87;62.01
33161;BME280;19522;45.656;11.302;2023-04-25T09:23:46;97611.31;;;14.20;65.59
33161;BME280;19522;45.656;11.302;2023-04-25T09:26:20;97624.91;;;14.39;63.79
33161;BME280;19522;45.656;11.302;2023-04-25T09:28:45;97576.63;;;13.78;58.14
33161;BME280;19522;45.656;11.302;2023-04-25T09:31:21;97620.16;;;14.03;64.88
33161;BME280;19522;45.656;11.302;2023-04-25T09:33:47;97620.56;;;13.89;62.08
33161;BME280;19522;45.656;11.302;2023-04-25T09:36:12;97615.16;;;14.31;63.38
33161;BME280;19522;45.656;11.302;2023-04-25T09:38:43;97618.28;;;14.58;61.77
33161;BME280;19522;45.656;11.302;2023-04-25T09:41:09;97617.19;;;14.36;61.45
33161;BME280;19522;45.656;11.302;2023-04-25T09:43:36;97608.66;;;14.56;63.30
33161;BME280;19522;45.656;11.302;2023-04-25T09:46:02;97613.50;;;14.96;63.81
33161;BME280;19522;45.656;11.302;2023-04-25T09:48:28;97593.88;;;15.23;60.68
33161;BME280;19522;45.656;11.302;2023-04-25T09:51:12;97608.25;;;15.42;59.45
33161;BME280;19522;45.656;11.302;2023-04-25T09:53:43;97607.91;;;14.91;59.07
33161;BME280;19522;45.656;11.302;2023-04-25T09:56:10;97611.66;;;14.54;58.98
33161;BME280;19522;45.656;11.302;2023-04-25T09:58:38;97611.03;;;14.94;62.78
33161;BME280;19522;45.656;11.302;2023-04-25T10:01:06;97611.25;;;15.05;62.44
33161;BME280;19522;45.656;11.302;2023-04-25T10:03:34;97587.06;;;14.54;66.09
33161;BME280;19522;45.656;11.302;2023-04-25T10:06:02;97624.25;;;14.55;65.55
33161;BME280;19522;45.656;11.302;2023-04-25T10:08:31;97623.28;;;14.49;63.44
33161;BME280;19522;45.656;11.302;2023-04-25T10:11:00;97624.69;;;13.61;63.26
33161;BME280;19522;45.656;11.302;2023-04-25T10:13:28;97621.41;;;13.52;68.65
33161;BME280;19522;45.656;11.302;2023-04-25T10:15:53;97623.03;;;13.41;69.27
33161;BME280;19522;45.656;11.302;2023-04-25T10:18:20;97620.63;;;13.82;70.58
33161;BME280;19522;45.656;11.302;2023-04-25T10:20:45;97621.56;;;13.76;66.37
33161;BME280;19522;45.656;11.302;2023-04-25T10:23:14;97572.78;;;13.67;63.36
33161;BME280;19522;45.656;11.302;2023-04-25T10:25:42;97621.94;;;14.10;67.49
33161;BME280;19522;45.656;11.302;2023-04-25T10:28:08;97617.13;;;14.66;65.26
33161;BME280;19522;45.656;11.302;2023-04-25T10:30:33;97617.56;;;14.51;63.37
33161;BME280;19522;45.656;11.302;2023-04-25T10:32:59;97613.06;;;14.14;62.04
33161;BME280;19522;45.656;11.302;2023-04-25T10:35:29;97583.59;;;14.05;63.18
33161;BME280;19522;45.656;11.302;2023-04-25T10:38:09;97595.72;;;13.78;64.85
33161;BME280;19522;45.656;11.302;2023-04-25T10:40:35;97597.69;;;13.71;66.53
33161;BME280;19522;45.656;11.302;2023-04-25T10:46:16;97618.81;;;14.25;62.46
33161;BME280;19522;45.656;11.302;2023-04-25T10:56:24;97634.81;;;12.91;68.63
33161;BME280;19522;45.656;11.302;2023-04-25T10:58:50;97616.00;;;13.08;70.43
33161;BME280;19522;45.656;11.302;2023-04-25T11:01:20;97623.19;;;13.02;65.40
33161;BME280;19522;45.656;11.302;2023-04-25T11:03:46;97620.63;;;12.82;66.38
33161;BME280;19522;45.656;11.302;2023-04-25T11:06:23;97605.03;;;13.33;67.48
33161;BME280;19522;45.656;11.302;2023-04-25T11:08:51;97605.94;;;13.83;66.01
33161;BME280;19522;45.656;11.302;2023-04-25T11:11:17;97593.25;;;13.39;63.20
33161;BME280;19522;45.656;11.302;2023-04-25T11:13:44;97604.13;;;13.77;63.30
33161;BME280;19522;45.656;11.302;2023-04-25T11:16:13;97598.16;;;13.68;61.78
33161;BME280;19522;45.656;11.302;2023-04-25T11:18:41;97584.28;;;13.32;62.70
33161;BME280;19522;45.656;11.302;2023-04-25T11:21:07;97593.91;;;13.35;65.92
33161;BME280;19522;45.656;11.302;2023-04-25T11:23:32;97589.78;;;13.51;66.51
33161;BME280;19522;45.656;11.302;2023-04-25T11:25:58;97579.97;;;13.24;66.46
33161;BME280;19522;45.656;11.302;2023-04-25T11:28:25;97582.75;;;13.36;65.85
33161;BME280;19522;45.656;11.302;2023-04-25T11:30:51;97589.31;;;13.54;67.44
33161;BME280;19522;45.656;11.302;2023-04-25T11:33:17;97586.13;;;13.57;67.20
33161;BME280;19522;45.656;11.302;2023-04-25T11:35:43;97595.59;;;13.54;67.71
33161;BME280;19522;45.656;11.302;2023-04-25T11:38:08;97618.72;;;13.70;67.30
33161;BME280;19522;45.656;11.302;2023-04-25T11:40:35;97613.78;;;13.61;66.44
33161;BME280;19522;45.656;11.302;2023-04-25T11:43:01;97611.06;;;13.42;69.24
33161;BME280;19522;45.656;11.302;2023-04-25T11:45:27;97612.91;;;13.23;69.93
33161;BME280;19522;45.656;11.302;2023-04-25T11:47:54;97616.16;;;13.13;70.14
33161;BME280;19522;45.656;11.302;2023-04-25T11:50:19;97608.03;;;13.06;72.17
33161;BME280;19522;45.656;11.302;2023-04-25T11:52:46;97607.50;;;12.98;72.43
33161;BME280;19522;45.656;11.302;2023-04-25T11:57:40;97621.47;;;12.57;75.74
33161;BME280;19522;45.656;11.302;2023-04-25T12:02:46;97606.38;;;11.91;75.88
33161;BME280;19522;45.656;11.302;2023-04-25T12:05:14;97628.97;;;11.98;77.49
33161;BME280;19522;45.656;11.302;2023-04-25T12:07:43;97610.34;;;11.95;76.82
33161;BME280;19522;45.656;11.302;2023-04-25T12:10:10;97645.91;;;12.00;79.00
33161;BME280;19522;45.656;11.302;2023-04-25T12:12:37;97637.50;;;12.08;79.01
33161;BME280;19522;45.656;11.302;2023-04-25T12:15:16;97635.50;;;11.83;80.32
33161;BME280;19522;45.656;11.302;2023-04-25T12:17:51;97623.25;;;11.61;80.56
33161;BME280;19522;45.656;11.302;2023-04-25T12:20:23;97644.19;;;11.60;81.99
33161;BME280;19522;45.656;11.302;2023-04-25T12:22:50;97638.34;;;11.50;82.46
33161;BME280;19522;45.656;11.302;2023-04-25T12:28:16;97635.41;;;11.51;83.60
33161;BME280;19522;45.656;11.302;2023-04-25T12:31:00;97627.50;;;11.36;82.68
33161;BME280;19522;45.656;11.302;2023-04-25T12:33:34;97629.63;;;11.28;83.63
33161;BME280;19522;45.656;11.302;2023-04-25T12:36:01;97577.44;;;10.99;85.74
33161;BME280;19522;45.656;11.302;2023-04-25T12:38:41;97629.63;;;11.34;83.20
33161;BME280;19522;45.656;11.302;2023-04-25T12:41:08;97647.16;;;11.45;83.10
33161;BME280;19522;45.656;11.302;2023-04-25T12:43:33;97655.03;;;11.67;80.54
33161;BME280;19522;45.656;11.302;2023-04-25T12:45:59;97644.63;;;11.50;82.39
33161;BME280;19522;45.656;11.302;2023-04-25T12:48:25;97653.16;;;11.61;83.07
33161;BME280;19522;45.656;11.302;2023-04-25T12:50:59;97653.81;;;11.49;82.54
33161;BME280;19522;45.656;11.302;2023-04-25T12:53:25;97668.03;;;11.51;83.22
33161;BME280;19522;45.656;11.302;2023-04-25T12:55:51;97665.53;;;11.50;81.90
33161;BME280;19522;45.656;11.302;2023-04-25T12:58:18;97662.44;;;11.33;82.56
33161;BME280;19522;45.656;11.302;2023-04-25T13:00:44;97662.59;;;11.51;80.99
33161;BME280;19522;45.656;11.302;2023-04-25T13:03:10;97662.56;;;11.65;82.06